NORTHERN QUEENS  -  Air Quality Alert Air Quality Alert        SOUTHERN QUEENS  -  Air Quality Alert Air Quality Alert      

Active alerts

Northern Queens
  Details for Northern Queens Air Quality Alert
Southern Queens
  Details for Southern Queens Air Quality Alert


WXM80 ListenWXM80 Stop

You find our weather info also at:

UK Metoffice

WeatherCloud

Weather Underground

Northeastern Weather Network

AWEKAS

Citizen Weather Observer Program (CWOP)

HAMweather, WeatherForYou, PWS Weather


Weather Underground History page Text

Daily Summary for September 29, 2017 Units:  Metric    English   Both
« Previous Day
Next Day »
Daily Weekly Monthly Yearly Custom
  High: Low: Average:
Temperature: 22.5 °C 12.4 °C 16.6 °C
Dew Point: 11.4 °C 7.6 °C 9.4 °C
Humidity: 86 % 45 % 64 %
Wind Speed: 16.6 km/h 0 km/h 4 km/h
Wind Gust: 27.8 km/h - -
Wind:- - South
Pressure: 1013.8 hPa 1010.4 hPa -
Precipitation: 0 mm    
Historical Graphs
 
 
Tabular Data for September 29, 2017
Time Temperature Dew Point Pressure Wind Wind Speed Wind Gust Humidity Rainfall Rate (Hourly)
00:03 16.8 °C 9.4 °C 1010.4 hPa North 4.3 km/h 16.7 km/h 62 % 0 mm
00:09 16.7 °C 9.4 °C 1010.4 hPa NE 12.2 km/h 20.4 km/h 62 % 0 mm
00:14 16.6 °C 9.3 °C 1010.4 hPa North 12.1 km/h 18.5 km/h 62 % 0 mm
00:19 16.6 °C 9.2 °C 1010.4 hPa NW 10.9 km/h 18.5 km/h 62 % 0 mm
00:24 16.5 °C 9.2 °C 1010.4 hPa NNE 10.6 km/h 22.2 km/h 62 % 0 mm
00:29 16.4 °C 9.1 °C 1010.4 hPa NNE 10.8 km/h 20.4 km/h 62 % 0 mm
00:34 16.4 °C 9.3 °C 1010.4 hPa NNW 9.8 km/h 20.4 km/h 63 % 0 mm
00:39 16.3 °C 9.3 °C 1010.7 hPa NNE 8.9 km/h 18.5 km/h 63 % 0 mm
00:44 16.3 °C 9 °C 1010.4 hPa NNW 11.6 km/h 22.2 km/h 62 % 0 mm
00:49 16.2 °C 9.2 °C 1010.7 hPa NNE 7.1 km/h 14.8 km/h 63 % 0 mm
00:54 16.2 °C 8.9 °C 1010.7 hPa NNE 16.6 km/h 27.8 km/h 62 % 0 mm
00:59 16.1 °C 9.2 °C 1010.7 hPa North 10.1 km/h 20.4 km/h 64 % 0 mm
01:04 16.1 °C 9 °C 1010.7 hPa NNE 10 km/h 16.7 km/h 63 % 0 mm
01:09 16 °C 9.4 °C 1010.7 hPa NE 7.2 km/h 16.1 km/h 65 % 0 mm
01:14 15.9 °C 9.1 °C 1010.7 hPa North 12.1 km/h 18.5 km/h 64 % 0 mm
01:19 15.9 °C 8.8 °C 1010.7 hPa NNE 7.6 km/h 13 km/h 63 % 0 mm
01:24 15.8 °C 9.3 °C 1011.1 hPa NNE 9.7 km/h 16.7 km/h 65 % 0 mm
01:29 15.8 °C 9 °C 1010.7 hPa NNE 11.1 km/h 22.2 km/h 64 % 0 mm
01:34 15.7 °C 8.9 °C 1010.7 hPa NNE 9.5 km/h 18.5 km/h 64 % 0 mm
01:39 15.7 °C 8.9 °C 1011.1 hPa North 13.2 km/h 16.7 km/h 64 % 0 mm
01:44 15.7 °C 9.1 °C 1010.7 hPa North 12.2 km/h 16.7 km/h 65 % 0 mm
01:49 15.6 °C 9.3 °C 1011.1 hPa NNW 8.4 km/h 14.8 km/h 66 % 0 mm
01:54 15.6 °C 9 °C 1011.1 hPa NE 5.1 km/h 14.8 km/h 65 % 0 mm
01:59 15.6 °C 8.8 °C 1011.1 hPa NNE 11.7 km/h 14.8 km/h 64 % 0 mm
02:04 15.5 °C 8.5 °C 1011.1 hPa NNE 6.9 km/h 16.7 km/h 63 % 0 mm
02:09 15.4 °C 8.7 °C 1011.1 hPa North 10.8 km/h 18.5 km/h 64 % 0 mm
02:14 15.4 °C 8.6 °C 1011.1 hPa NE 10.6 km/h 16.7 km/h 64 % 0 mm
02:19 15.4 °C 8.8 °C 1011.1 hPa NNE 6 km/h 16.7 km/h 65 % 0 mm
02:24 15.3 °C 9 °C 1011.1 hPa NNE 9.7 km/h 11.1 km/h 66 % 0 mm
02:29 15.3 °C 8.8 °C 1011.1 hPa NE 9.5 km/h 16.1 km/h 65 % 0 mm
02:34 15.3 °C 8.7 °C 1011.1 hPa NNE 5 km/h 6.4 km/h 65 % 0 mm
02:40 15.2 °C 8.7 °C 1011.1 hPa NNE 10.3 km/h 13 km/h 65 % 0 mm
02:44 15.2 °C 8.4 °C 1011.1 hPa NNW 6.4 km/h 12.9 km/h 64 % 0 mm
02:49 15.2 °C 8.6 °C 1011.1 hPa NNE 6.1 km/h 11.1 km/h 65 % 0 mm
02:54 15.1 °C 8.6 °C 1011.1 hPa NNE 9.8 km/h 18.5 km/h 65 % 0 mm
02:59 15.1 °C 8.5 °C 1011.1 hPa NE 10.5 km/h 18.5 km/h 65 % 0 mm
03:04 15.1 °C 8.9 °C 1011.1 hPa North 7.9 km/h 11.1 km/h 67 % 0 mm
03:09 15 °C 8.7 °C 1011.1 hPa NNE 6 km/h 13 km/h 66 % 0 mm
03:15 14.9 °C 8.4 °C 1011.1 hPa North 7.2 km/h 14.8 km/h 65 % 0 mm
03:19 14.9 °C 8.4 °C 1011.1 hPa NE 9.2 km/h 13 km/h 65 % 0 mm
03:24 14.9 °C 8.6 °C 1011.1 hPa North 14 km/h 16.7 km/h 66 % 0 mm
03:30 14.8 °C 8.3 °C 1011.1 hPa North 9 km/h 18.5 km/h 65 % 0 mm
03:35 14.8 °C 8.6 °C 1011.4 hPa NNE 8.9 km/h 11.1 km/h 66 % 0 mm
03:40 14.8 °C 8.6 °C 1011.1 hPa NNE 8 km/h 11.3 km/h 66 % 0 mm
03:45 14.8 °C 8.5 °C 1011.4 hPa North 6.1 km/h 9.3 km/h 66 % 0 mm
03:50 14.7 °C 8.4 °C 1011.4 hPa NNE 7.4 km/h 13 km/h 66 % 0 mm
03:55 14.7 °C 8.7 °C 1011.4 hPa North 4.2 km/h 7.4 km/h 67 % 0 mm
04:00 14.7 °C 8.6 °C 1011.4 hPa NNW 3.9 km/h 11.1 km/h 67 % 0 mm
04:05 14.6 °C 8.3 °C 1011.4 hPa North 5.1 km/h 7.4 km/h 66 % 0 mm
04:10 14.6 °C 8.5 °C 1011.7 hPa North 4.7 km/h 11.1 km/h 67 % 0 mm
04:15 14.6 °C 8.3 °C 1011.7 hPa North 4.5 km/h 11.1 km/h 66 % 0 mm
04:20 14.5 °C 8.4 °C 1011.7 hPa NNE 9.3 km/h 14.8 km/h 67 % 0 mm
04:25 14.5 °C 8.4 °C 1011.7 hPa NE 9.2 km/h 14.8 km/h 67 % 0 mm
04:30 14.4 °C 8.4 °C 1011.7 hPa North 6.6 km/h 13 km/h 67 % 0 mm
04:36 14.4 °C 8.6 °C 1011.7 hPa North 3.5 km/h 9.3 km/h 68 % 0 mm
04:41 14.3 °C 8.3 °C 1011.7 hPa North 6.1 km/h 9.7 km/h 67 % 0 mm
04:46 14.3 °C 8.2 °C 1011.7 hPa North 3.2 km/h 12.9 km/h 67 % 0 mm
04:51 14.2 °C 8.2 °C 1011.7 hPa NNE 1.6 km/h 16.1 km/h 67 % 0 mm
04:56 14.2 °C 8.3 °C 1011.7 hPa NNE 9.7 km/h 19.3 km/h 68 % 0 mm
05:01 14.1 °C 8.1 °C 1011.7 hPa NNW 4.7 km/h 8 km/h 67 % 0 mm
05:06 14.1 °C 8.1 °C 1011.7 hPa North 6.9 km/h 11.1 km/h 67 % 0 mm
05:11 14.1 °C 8.2 °C 1011.7 hPa NNE 4.8 km/h 8 km/h 68 % 0 mm
05:16 14 °C 8.2 °C 1011.7 hPa North 5.8 km/h 11.3 km/h 68 % 0 mm
05:21 13.9 °C 8.1 °C 1011.7 hPa North 5.1 km/h 8 km/h 68 % 0 mm
05:26 13.9 °C 8.1 °C 1011.7 hPa NNE 7.7 km/h 16.7 km/h 68 % 0 mm
05:31 13.8 °C 8 °C 1011.7 hPa NNE 6.1 km/h 9.3 km/h 68 % 0 mm
05:36 13.8 °C 8.2 °C 1011.7 hPa NNE 6.6 km/h 11.1 km/h 69 % 0 mm
05:41 13.8 °C 8.2 °C 1012.1 hPa NNE 6.9 km/h 9.7 km/h 69 % 0 mm
05:46 13.8 °C 8.2 °C 1012.1 hPa North 8.9 km/h 14.5 km/h 69 % 0 mm
05:51 13.7 °C 7.9 °C 1012.1 hPa NE 4.8 km/h 13 km/h 68 % 0 mm
05:56 13.7 °C 7.9 °C 1012.1 hPa North 9.3 km/h 16.7 km/h 68 % 0 mm
06:01 13.7 °C 7.7 °C 1012.1 hPa NNW 8.7 km/h 18.5 km/h 67 % 0 mm
06:06 13.7 °C 7.9 °C 1012.1 hPa NNE 6.3 km/h 14.8 km/h 68 % 0 mm
06:11 13.7 °C 8.1 °C 1012.4 hPa NNW 6.9 km/h 11.3 km/h 69 % 0 mm
06:16 13.7 °C 8.1 °C 1012.4 hPa NNE 6.8 km/h 11.1 km/h 69 % 0 mm
06:21 13.7 °C 7.9 °C 1012.4 hPa North 5.8 km/h 11.1 km/h 68 % 0 mm
06:26 13.7 °C 7.7 °C 1012.4 hPa North 3.5 km/h 9.3 km/h 67 % 0 mm
06:31 13.7 °C 7.7 °C 1012.4 hPa NNE 4.8 km/h 11.1 km/h 67 % 0 mm
06:36 13.7 °C 7.9 °C 1012.4 hPa NNE 3.4 km/h 7.4 km/h 68 % 0 mm
06:41 13.6 °C 7.6 °C 1012.4 hPa ENE 6 km/h 11.1 km/h 67 % 0 mm
06:46 13.6 °C 7.6 °C 1012.4 hPa North 9 km/h 11.1 km/h 67 % 0 mm
06:51 13.6 °C 7.6 °C 1012.4 hPa North 7.2 km/h 11.3 km/h 67 % 0 mm
06:56 13.6 °C 7.6 °C 1012.4 hPa NNE 5.3 km/h 13 km/h 67 % 0 mm
07:01 13.6 °C 7.8 °C 1012.4 hPa North 6.9 km/h 9.7 km/h 68 % 0 mm
07:06 13.7 °C 7.7 °C 1012.4 hPa NNE 6.3 km/h 9.3 km/h 67 % 0 mm
07:11 13.7 °C 7.7 °C 1012.8 hPa NNE 4.5 km/h 14.8 km/h 67 % 0 mm
07:17 13.8 °C 7.9 °C 1012.8 hPa NNE 6.1 km/h 11.1 km/h 68 % 0 mm
07:22 13.8 °C 8 °C 1013.1 hPa NNE 4.8 km/h 7.4 km/h 68 % 0 mm
07:27 13.8 °C 8 °C 1012.8 hPa NNE 6 km/h 9.3 km/h 68 % 0 mm
07:32 13.9 °C 8.1 °C 1013.1 hPa North 3.9 km/h 11.1 km/h 68 % 0 mm
07:37 13.9 °C 8.1 °C 1013.1 hPa North 4.5 km/h 9.3 km/h 68 % 0 mm
07:42 13.9 °C 8.1 °C 1013.1 hPa North 7.6 km/h 14.5 km/h 68 % 0 mm
07:47 14 °C 8.2 °C 1013.1 hPa NNE 5 km/h 9.3 km/h 68 % 0 mm
07:52 14 °C 8.2 °C 1013.1 hPa North 0.5 km/h 3.7 km/h 68 % 0 mm
07:57 14.1 °C 8 °C 1013.1 hPa NNE 6.3 km/h 11.1 km/h 67 % 0 mm
08:02 14.1 °C 7.8 °C 1013.1 hPa North 6.3 km/h 14.8 km/h 66 % 0 mm
08:07 14.1 °C 8.3 °C 1013.1 hPa North 6.6 km/h 13 km/h 68 % 0 mm
08:12 14.2 °C 8.3 °C 1013.1 hPa NNE 5.1 km/h 7.4 km/h 68 % 0 mm
08:17 14.3 °C 8.2 °C 1013.1 hPa NNE 4.8 km/h 6.4 km/h 67 % 0 mm
08:22 14.3 °C 8.3 °C 1013.4 hPa ENE 4.5 km/h 11.3 km/h 67 % 0 mm
08:27 14.4 °C 8.1 °C 1013.1 hPa NE 3.4 km/h 5.6 km/h 66 % 0 mm
08:32 14.5 °C 8.7 °C 1013.4 hPa NNE 3.5 km/h 7.4 km/h 68 % 0 mm
08:37 14.6 °C 8.7 °C 1013.4 hPa NNW 2.3 km/h 5.6 km/h 68 % 0 mm
08:42 14.6 °C 8.3 °C 1013.4 hPa North 3.9 km/h 8 km/h 66 % 0 mm
08:47 14.7 °C 8.2 °C 1013.4 hPa NNE 3.5 km/h 8 km/h 65 % 0 mm
08:52 14.7 °C 8.4 °C 1013.4 hPa North 0.3 km/h 1.9 km/h 66 % 0 mm
08:57 14.7 °C 8.2 °C 1013.8 hPa NNE 6.1 km/h 8 km/h 65 % 0 mm
09:02 14.7 °C 8.4 °C 1013.8 hPa NNW 1.3 km/h 5.6 km/h 66 % 0 mm
09:07 14.7 °C 8.2 °C 1013.8 hPa NNE 7.4 km/h 11.3 km/h 65 % 0 mm
09:13 14.8 °C 8.3 °C 1013.8 hPa NNW 3.4 km/h 9.3 km/h 65 % 0 mm
09:18 14.8 °C 8.1 °C 1013.8 hPa NNE 5.1 km/h 7.4 km/h 64 % 0 mm
09:23 14.8 °C 8.1 °C 1013.8 hPa NE 5.8 km/h 7.4 km/h 64 % 0 mm
09:28 14.8 °C 7.8 °C 1013.8 hPa NNE 5 km/h 14.8 km/h 63 % 0 mm
09:33 14.9 °C 7.9 °C 1013.8 hPa North 6.4 km/h 9.3 km/h 63 % 0 mm
09:38 14.9 °C 7.9 °C 1013.8 hPa NW 2.7 km/h 6.4 km/h 63 % 0 mm
09:43 14.9 °C 7.9 °C 1013.8 hPa NE 3.2 km/h 5.6 km/h 63 % 0 mm
09:48 15 °C 8 °C 1013.8 hPa NNW 6.8 km/h 11.1 km/h 63 % 0 mm
09:53 15.1 °C 7.8 °C 1013.8 hPa Calm   1.9 km/h 62 % 0 mm
09:55 15.1 °C 8.3 °C 1013.8 hPa North 6.6 km/h 7.4 km/h 64 % 0 mm
10:00 15.1 °C 7.9 °C 1013.8 hPa North 2.4 km/h 7.4 km/h 62 % 0 mm
10:05 15.2 °C 7.7 °C 1013.8 hPa NNE 4.2 km/h 5.6 km/h 61 % 0 mm
10:10 15.2 °C 7.7 °C 1013.8 hPa NNE 5 km/h 9.3 km/h 61 % 0 mm
10:15 15.4 °C 8.2 °C 1013.8 hPa NNE 6.3 km/h 9.3 km/h 62 % 0 mm
10:20 15.7 °C 8.7 °C 1013.8 hPa WNW 1.9 km/h 5.6 km/h 63 % 0 mm
10:25 15.8 °C 7.8 °C 1013.8 hPa North 3.5 km/h 11.3 km/h 59 % 0 mm
10:31 16 °C 8.2 °C 1013.8 hPa North 1.6 km/h 9.7 km/h 60 % 0 mm
10:36 16.1 °C 8.1 °C 1013.8 hPa NNE 3.2 km/h 11.3 km/h 59 % 0 mm
10:41 16.1 °C 8.1 °C 1013.8 hPa North 4.8 km/h 9.7 km/h 59 % 0 mm
10:46 16.1 °C 7.8 °C 1013.8 hPa North 3.2 km/h 11.3 km/h 58 % 0 mm
10:51 16.1 °C 8.1 °C 1013.8 hPa NNE 1.6 km/h 8 km/h 59 % 0 mm
10:56 16.2 °C 8.4 °C 1013.8 hPa North 1.6 km/h 14.5 km/h 60 % 0 mm
11:01 16.3 °C 8.7 °C 1013.8 hPa NNE 3.9 km/h 6.4 km/h 61 % 0 mm
11:06 16.5 °C 8.7 °C 1013.8 hPa NNE 7.7 km/h 11.1 km/h 60 % 0 mm
11:11 16.8 °C 9.3 °C 1013.8 hPa North 3.5 km/h 5.6 km/h 61 % 0 mm
11:16 17.2 °C 9.1 °C 1013.8 hPa NNE 6.4 km/h 7.4 km/h 59 % 0 mm
11:21 17.8 °C 9.9 °C 1013.8 hPa North 1.6 km/h 9.7 km/h 60 % 0 mm
11:26 18.5 °C 10.3 °C 1013.8 hPa North 1.8 km/h 5.6 km/h 59 % 0 mm
11:31 18.9 °C 9.7 °C 1013.4 hPa WNW 3.7 km/h 5.6 km/h 55 % 0 mm
11:36 19.4 °C 9.9 °C 1013.4 hPa North 6 km/h 7.4 km/h 54 % 0 mm
11:41 19.9 °C 10.1 °C 1013.4 hPa North 1.1 km/h 5.6 km/h 53 % 0 mm
11:46 20.3 °C 10.7 °C 1013.4 hPa North 3.7 km/h 8 km/h 54 % 0 mm
11:51 20.5 °C 9.4 °C 1013.1 hPa WNW 6.4 km/h 6.4 km/h 49 % 0 mm
11:56 20.6 °C 10.4 °C 1013.4 hPa NNE 3.2 km/h 5.6 km/h 52 % 0 mm
12:01 20.9 °C 11 °C 1013.1 hPa WNW 2.7 km/h 5.6 km/h 53 % 0 mm
12:06 21.2 °C 10.3 °C 1013.1 hPa NNE 4.8 km/h 7.4 km/h 50 % 0 mm
12:12 21.3 °C 10.5 °C 1013.1 hPa SSW 2.4 km/h 7.4 km/h 50 % 0 mm
12:17 21.5 °C 9.7 °C 1013.1 hPa WNW 3.4 km/h 6.4 km/h 47 % 0 mm
12:22 21.7 °C 9.9 °C 1013.1 hPa NNE 2.7 km/h 7.4 km/h 47 % 0 mm
12:27 21.8 °C 10 °C 1013.1 hPa WNW 6.1 km/h 9.3 km/h 47 % 0 mm
12:32 21.9 °C 11.1 °C 1013.1 hPa NW 4.2 km/h 9.7 km/h 50 % 0 mm
12:37 21.9 °C 9.7 °C 1013.1 hPa West 4 km/h 7.4 km/h 46 % 0 mm
12:42 21.9 °C 11 °C 1013.1 hPa West 1.6 km/h 3.7 km/h 50 % 0 mm
12:47 22.1 °C 11.4 °C 1013.1 hPa West 1.8 km/h 5.6 km/h 51 % 0 mm
12:52 22 °C 10.8 °C 1013.1 hPa NW 2.3 km/h 5.6 km/h 49 % 0 mm
12:57 22.1 °C 10.3 °C 1013.1 hPa WSW 5 km/h 5.6 km/h 47 % 0 mm
13:02 22.3 °C 10.4 °C 1013.1 hPa WNW 1.4 km/h 4.8 km/h 47 % 0 mm
13:05 22.3 °C 10.2 °C 1013.1 hPa WNW 3.1 km/h 3.7 km/h 46 % 0 mm
13:10 22.4 °C 10.5 °C 1013.1 hPa West 2.4 km/h 6.4 km/h 47 % 0 mm
13:13 22.4 °C 10.2 °C 1013.1 hPa NW 6 km/h 7.4 km/h 46 % 0 mm
13:18 22.3 °C 10.8 °C 1012.8 hPa Calm   1.9 km/h 48 % 0 mm
13:23 22.3 °C 10.4 °C 1012.8 hPa WNW 4.3 km/h 11.1 km/h 47 % 0 mm
13:28 22.3 °C 10.4 °C 1012.8 hPa NW 6.4 km/h 11.1 km/h 47 % 0 mm
13:29 22.3 °C 10.7 °C 1012.8 hPa NW 7.7 km/h 14.5 km/h 48 % 0 mm
13:34 22.3 °C 11.1 °C 1012.4 hPa WSW 2.7 km/h 5.6 km/h 49 % 0 mm
13:39 22.3 °C 10.4 °C 1012.4 hPa NW 2.4 km/h 5.6 km/h 47 % 0 mm
13:44 22.3 °C 10.1 °C 1012.4 hPa WNW 0.3 km/h 1.9 km/h 46 % 0 mm
13:46 22.3 °C 11.1 °C 1012.4 hPa WSW 4.5 km/h 5.6 km/h 49 % 0 mm
13:51 22.3 °C 10.4 °C 1012.4 hPa West 4.2 km/h 13 km/h 47 % 0 mm
13:56 22.5 °C 10.9 °C 1012.4 hPa WNW 3.1 km/h 8 km/h 48 % 0 mm
14:01 22.5 °C 10.3 °C 1012.1 hPa WSW 2.4 km/h 11.3 km/h 46 % 0 mm
14:06 22.5 °C 9.9 °C 1012.1 hPa SSW 6.6 km/h 11.1 km/h 45 % 0 mm
14:11 22.5 °C 10.3 °C 1012.1 hPa West 7.7 km/h 14.5 km/h 46 % 0 mm
14:16 22.4 °C 10.2 °C 1012.1 hPa West 3.2 km/h 13 km/h 46 % 0 mm
14:21 22.4 °C 10.5 °C 1012.1 hPa West 4.5 km/h 9.3 km/h 47 % 0 mm
14:26 22.3 °C 9.8 °C 1012.1 hPa WSW 7.1 km/h 11.1 km/h 45 % 0 mm
14:32 22.3 °C 10.4 °C 1012.1 hPa NW 1.4 km/h 3.2 km/h 47 % 0 mm
14:37 22.2 °C 10.4 °C 1012.1 hPa West 2.4 km/h 7.4 km/h 47 % 0 mm
14:42 22.2 °C 10 °C 1012.1 hPa West 1.6 km/h 3.2 km/h 46 % 0 mm
14:47 22.2 °C 10.1 °C 1012.1 hPa WSW 1.9 km/h 5.6 km/h 46 % 0 mm
14:52 22.3 °C 10.7 °C 1012.1 hPa West 3.5 km/h 7.4 km/h 48 % 0 mm
14:57 22.2 °C 9.7 °C 1012.1 hPa WSW 5.1 km/h 11.1 km/h 45 % 0 mm
15:02 22.2 °C 10.4 °C 1011.7 hPa WNW 1.6 km/h 7.4 km/h 47 % 0 mm
15:07 22.2 °C 10.7 °C 1011.7 hPa NNW 3.5 km/h 9.3 km/h 48 % 0 mm
15:12 22.2 °C 10.3 °C 1011.7 hPa NW 1.9 km/h 5.6 km/h 47 % 0 mm
15:17 22.1 °C 10.6 °C 1011.7 hPa West 4 km/h 7.4 km/h 48 % 0 mm
15:22 22.1 °C 9.9 °C 1011.7 hPa West 3.5 km/h 7.4 km/h 46 % 0 mm
15:27 21.9 °C 10.1 °C 1011.7 hPa NW 3.1 km/h 5.6 km/h 47 % 0 mm
15:32 21.8 °C 9.4 °C 1011.4 hPa NW 5.1 km/h 11.1 km/h 45 % 0 mm
15:37 21.6 °C 9.8 °C 1011.4 hPa NNW 2.4 km/h 9.7 km/h 47 % 0 mm
15:38 21.6 °C 9.8 °C 1011.4 hPa WNW 4.5 km/h 9.3 km/h 47 % 0 mm
15:43 21.4 °C 9.9 °C 1011.4 hPa NNW 5.1 km/h 11.3 km/h 48 % 0 mm
15:48 21.3 °C 10.7 °C 1011.4 hPa WNW 1.6 km/h 9.3 km/h 51 % 0 mm
15:53 21.2 °C 10 °C 1011.4 hPa WNW 6.8 km/h 13 km/h 49 % 0 mm
15:58 21.1 °C 9.6 °C 1011.4 hPa WNW 3.2 km/h 9.3 km/h 48 % 0 mm
16:03 20.8 °C 9.7 °C 1011.4 hPa WNW 5.1 km/h 11.1 km/h 49 % 0 mm
16:08 20.6 °C 10.1 °C 1011.4 hPa WNW 0.3 km/h 5.6 km/h 51 % 0 mm
16:13 20.5 °C 9.7 °C 1011.7 hPa West 2.7 km/h 6.4 km/h 50 % 0 mm
16:18 20.3 °C 10.2 °C 1011.7 hPa NNW 1.9 km/h 5.6 km/h 52 % 0 mm
16:23 20.2 °C 10.3 °C 1011.4 hPa North 3.5 km/h 7.4 km/h 53 % 0 mm
16:28 20 °C 9.8 °C 1011.4 hPa West 1.6 km/h 5.6 km/h 52 % 0 mm
16:33 19.9 °C 10.3 °C 1011.4 hPa NNW 1.9 km/h 8 km/h 54 % 0 mm
16:38 19.8 °C 9.9 °C 1011.4 hPa NW 2.6 km/h 7.4 km/h 53 % 0 mm
16:43 19.7 °C 9.8 °C 1011.7 hPa WNW 3.7 km/h 5.6 km/h 53 % 0 mm
16:48 19.6 °C 10.3 °C 1011.7 hPa WNW 1.1 km/h 3.2 km/h 55 % 0 mm
16:53 19.4 °C 9.9 °C 1011.4 hPa West 6.8 km/h 14.8 km/h 54 % 0 mm
16:58 19.3 °C 9.5 °C 1011.4 hPa WNW 2.1 km/h 5.6 km/h 53 % 0 mm
17:03 19.3 °C 9.7 °C 1011.4 hPa WNW 2.6 km/h 8 km/h 54 % 0 mm
17:08 19.2 °C 9.6 °C 1011.4 hPa WNW 2.4 km/h 5.6 km/h 54 % 0 mm
17:13 19.1 °C 9.8 °C 1011.7 hPa Calm   1.9 km/h 55 % 0 mm
17:18 18.9 °C 9.9 °C 1011.7 hPa NNW 0.6 km/h 5.6 km/h 56 % 0 mm
17:23 18.8 °C 10.1 °C 1011.7 hPa West 1.4 km/h 11.3 km/h 57 % 0 mm
17:29 18.8 °C 10.1 °C 1011.7 hPa NW 1.6 km/h 3.7 km/h 57 % 0 mm
17:34 18.7 °C 10.3 °C 1011.7 hPa North 1.3 km/h 3.7 km/h 58 % 0 mm
17:39 18.6 °C 9.9 °C 1011.7 hPa NW 1.1 km/h 5.6 km/h 57 % 0 mm
17:44 18.6 °C 9.9 °C 1011.7 hPa WSW 1.6 km/h 5.6 km/h 57 % 0 mm
17:49 18.5 °C 10.1 °C 1011.7 hPa West 1.4 km/h 3.7 km/h 58 % 0 mm
17:54 18.4 °C 10 °C 1011.7 hPa Calm     58 % 0 mm
17:59 18.3 °C 9.9 °C 1011.7 hPa West 1.4 km/h 5.6 km/h 58 % 0 mm
18:04 18.3 °C 9.9 °C 1012.1 hPa Calm   3.7 km/h 58 % 0 mm
18:09 18.2 °C 10.1 °C 1012.1 hPa West 1.4 km/h 1.9 km/h 59 % 0 mm
18:14 18.2 °C 10 °C 1012.1 hPa Calm     59 % 0 mm
18:19 18.1 °C 10.2 °C 1012.1 hPa West 0.2 km/h 1.6 km/h 60 % 0 mm
18:24 18 °C 10.1 °C 1012.1 hPa West 0.3 km/h 1.9 km/h 60 % 0 mm
18:29 17.9 °C 10.1 °C 1012.1 hPa Calm     60 % 0 mm
18:34 17.8 °C 10.2 °C 1012.1 hPa Calm     61 % 0 mm
18:40 17.7 °C 10.3 °C 1012.1 hPa Calm     62 % 0 mm
18:45 17.6 °C 10.2 °C 1012.1 hPa Calm     62 % 0 mm
18:50 17.4 °C 10.1 °C 1012.1 hPa Calm   1.9 km/h 62 % 0 mm
18:55 17.3 °C 10.2 °C 1012.1 hPa Calm     63 % 0 mm
19:00 17.2 °C 10.6 °C 1012.1 hPa Calm     65 % 0 mm
19:05 17.1 °C 10.7 °C 1012.4 hPa West 1 km/h 3.7 km/h 66 % 0 mm
19:10 16.9 °C 10.5 °C 1012.1 hPa West 0.2 km/h 1.9 km/h 66 % 0 mm
19:15 16.8 °C 10.6 °C 1012.1 hPa Calm     67 % 0 mm
19:20 16.6 °C 10.6 °C 1012.1 hPa Calm     68 % 0 mm
19:25 16.4 °C 10.7 °C 1012.1 hPa Calm     69 % 0 mm
19:30 16.2 °C 10.5 °C 1012.4 hPa West 1.3 km/h 3.7 km/h 69 % 0 mm
19:35 16.1 °C 10.4 °C 1012.1 hPa Calm   1.9 km/h 69 % 0 mm
19:40 15.8 °C 10.4 °C 1012.4 hPa Calm     70 % 0 mm
19:45 15.7 °C 10.2 °C 1012.4 hPa Calm     70 % 0 mm
19:50 15.5 °C 10.3 °C 1012.4 hPa Calm     71 % 0 mm
19:55 15.3 °C 10.3 °C 1012.4 hPa Calm     72 % 0 mm
20:00 15.2 °C 10.2 °C 1012.4 hPa Calm   1.9 km/h 72 % 0 mm
20:05 15.1 °C 10.1 °C 1012.4 hPa Calm     72 % 0 mm
20:10 14.9 °C 10.2 °C 1012.8 hPa Calm     73 % 0 mm
20:15 14.8 °C 10.2 °C 1012.4 hPa Calm     74 % 0 mm
20:20 14.7 °C 10.1 °C 1012.8 hPa Calm     74 % 0 mm
20:25 14.6 °C 10.2 °C 1012.8 hPa Calm     75 % 0 mm
20:30 14.4 °C 10.1 °C 1012.8 hPa Calm     75 % 0 mm
20:36 14.4 °C 10.2 °C 1012.8 hPa Calm     76 % 0 mm
20:41 14.3 °C 10.3 °C 1012.8 hPa Calm     77 % 0 mm
20:46 14.2 °C 10.4 °C 1012.8 hPa Calm     78 % 0 mm
20:50 14.1 °C 10.5 °C 1012.8 hPa Calm     79 % 0 mm
20:52 14.1 °C 10.4 °C 1012.8 hPa Calm     79 % 0 mm
20:57 14 °C 10.4 °C 1012.8 hPa West 0.2 km/h 1.9 km/h 79 % 0 mm
21:02 13.9 °C 10.3 °C 1012.8 hPa West 0.2 km/h 1.9 km/h 79 % 0 mm
21:07 13.8 °C 10.4 °C 1012.8 hPa West 0.3 km/h 1.9 km/h 80 % 0 mm
21:12 13.8 °C 10.6 °C 1012.8 hPa West 0.3 km/h 1.9 km/h 81 % 0 mm
21:17 13.7 °C 10.5 °C 1012.8 hPa Calm     81 % 0 mm
21:22 13.7 °C 10.4 °C 1012.8 hPa West 0.3 km/h 1.9 km/h 81 % 0 mm
21:27 13.6 °C 10.4 °C 1012.8 hPa West 0.6 km/h 1.9 km/h 81 % 0 mm
21:32 13.6 °C 10.3 °C 1012.8 hPa Calm     81 % 0 mm
21:37 13.5 °C 10.3 °C 1012.8 hPa Calm     81 % 0 mm
21:42 13.4 °C 10.2 °C 1012.8 hPa Calm     81 % 0 mm
21:48 13.4 °C 10.2 °C 1012.8 hPa Calm     81 % 0 mm
21:53 13.3 °C 10.2 °C 1012.4 hPa Calm     81 % 0 mm
21:58 13.3 °C 10.3 °C 1012.8 hPa Calm     82 % 0 mm
22:03 13.2 °C 10.2 °C 1012.8 hPa Calm     82 % 0 mm
22:08 13.2 °C 10.2 °C 1012.8 hPa Calm     82 % 0 mm
22:13 13.1 °C 10.1 °C 1012.8 hPa Calm     82 % 0 mm
22:18 13.1 °C 10.1 °C 1012.8 hPa Calm     82 % 0 mm
22:23 13 °C 10 °C 1012.8 hPa Calm     82 % 0 mm
22:28 12.9 °C 9.9 °C 1012.8 hPa Calm     82 % 0 mm
22:33 12.9 °C 10.1 °C 1012.8 hPa Calm     83 % 0 mm
22:38 12.8 °C 10.2 °C 1013.1 hPa Calm     84 % 0 mm
22:43 12.7 °C 10.1 °C 1013.1 hPa Calm     84 % 0 mm
22:48 12.7 °C 10.1 °C 1012.8 hPa Calm     84 % 0 mm
22:53 12.7 °C 10.1 °C 1012.8 hPa Calm     84 % 0 mm
22:58 12.6 °C 10 °C 1013.1 hPa Calm     84 % 0 mm
23:03 12.6 °C 9.9 °C 1012.8 hPa Calm     84 % 0 mm
23:08 12.6 °C 9.9 °C 1012.8 hPa Calm     84 % 0 mm
23:14 12.5 °C 9.9 °C 1012.8 hPa Calm     84 % 0 mm
23:19 12.5 °C 10.1 °C 1012.8 hPa Calm     85 % 0 mm
23:24 12.4 °C 10 °C 1012.8 hPa Calm     85 % 0 mm
23:29 12.4 °C 10 °C 1012.8 hPa Calm     85 % 0 mm
23:34 12.4 °C 10.1 °C 1012.8 hPa Calm     86 % 0 mm
23:39 12.4 °C 10.1 °C 1012.8 hPa Calm     86 % 0 mm
23:44 12.4 °C 10.1 °C 1012.8 hPa Calm     86 % 0 mm
23:49 12.4 °C 10.1 °C 1012.8 hPa Calm     86 % 0 mm
23:54 12.4 °C 10.1 °C 1012.8 hPa Calm     86 % 0 mm
23:59 12.4 °C 10.1 °C 1012.4 hPa Calm     86 % 0 mm
Crab Meadow Weather
Compliments of Weather Underground - 3 mb

Script developed by  Jim McMurry - jmcmurry@mwt.net Adapted for the template by  Wim van der Kuil - Leuven-Template.eu

Weather Terms: Flood Watch - Conditions are favorable for flash flooding in and close to the watch area. These watches are issued by the Weather Forecast Office in Upton and are usually for the first 12 to 24 hours of a forecast.